Weather at Rathfriland Airstrip

Public forecast

Using degrees Celsius for public forecast. Weather courtesy of forecast.io.

Closest aviation weather report (METAR) to Rathfriland Airstrip

Report is more than 6 hours old.

Closest report is Belfast International Airport, 24.3 nm (45.0 km) N.

2022/11/14 15:20 (retrieved 2 years ago)

EGAA 141520Z AUTO 17008KT 9999 FEW018 11/08 Q1000

Closest aviation forecast (TAF) to Rathfriland Airstrip

Forecast is more than 12 hours old.

Closest forecast is Belfast International Airport, 24.3 nm (45.0 km) N.

2023/02/22 18:00 (retrieved 1 year ago)

TAF EGAA 221654Z 2218/2318 34015G25KT 9999 SCT025 PROB30 TEMPO 2218/2220 7000 SHRA BECMG 2219/2222 35008KT BECMG 2313/2316 29010KT